Biengarten, Germany

07:19 AM CET am 24. März 2017 (GMT +0100)
Gewerbegebiet Buch | | Change Station

Höhe 941 ft 49.68 °N, 10.86 °E | Updated 2 minutes ago

Bedeckt
Bedeckt
46.9 °F
gefühlte 47 °F
N
2.5
Wind Wechselnd Wind aus West-Südwest
Gusts 3.1 mph

Heute
Max. -- | schwach -- °F
--% Regenrisiko
Gestern
Max. -- | schwach -- °F
Precip. -- inch
Druck 30.27 inch
Sichtweite 6.2 Meilen
Wolken Bedeckt 1700 ft
Windchill 47 °F
Taupunkt 40 °F
Feuchtigkeit 77%
Regen 0.00 inch
Schneehöhe Nicht verfügbar..
6:10 AM 6:35 PM
Letztes Viertel, 17% visible
METAR ETIK 240558Z AUTO 04008KT 9999 OVC017 07/06 A3024 RMK AO2 SLP249 T00650058 10066 20020 52019
Druck 30.27 inch
Sichtweite 6.2 Meilen
Wolken Bedeckt 1700 ft
Windchill 47 °F
Taupunkt 40 °F
Feuchtigkeit 77%
Regen 0.00 inch
Schneehöhe Nicht verfügbar..
6:10 AM 6:35 PM
Letztes Viertel, 17% visible
METAR ETIK 240558Z AUTO 04008KT 9999 OVC017 07/06 A3024 RMK AO2 SLP249 T00650058 10066 20020 52019

Get Severe Weather Alerts

Thanks for signing up!

Be on the lookout for a verification email in your inbox.

You'll start receiving the daily forecast at 8 AM.

×

10-Day Weather Forecast

×

Almanac

Astronomie

Mar. 24, 2017 Aufgang Untergang
Genaue Zeit
Bürgerliche Dämmerung
Nautische Dämmerung
Astronomische Dämmerung
Mond
Länge des sichtbaren Lichts
Tageslänge
Tomorrow will be .
, % of the Moon is Illuminated

Heutige Rekorde

Country Highs Country Lows

Community

WunderPhotos

Upload Photos

1,962,540 Fotos hochgeladen!

WunderBlog® & News

Nearby

Luftqualität

  Luftqualität LQ Index Schadstoff
Not available.

Schneehöhe

Station Depth Höhe

Erdbebenaktivität

Stadt Distance Mag. Time & Date
Minimum magnitude displayed is 2.5.

Erdbebenaktivität

Stadt Distance Mag. Time & Date
Minimum magnitude displayed is 2.5.

küstennahe Wassertemperaturen

Ort Temperatur

Stations

Wetterstationen in der Umgebung

Stationsstandort Temp. Windchill Taupunkt Feuchtigkeit Wind Precip. Höhe Aktualisiert Art